createdAt,value
2023-03-22T00:02:37.214Z,76.57
2023-03-22T00:05:06.433Z,76.91
2023-03-22T00:07:34.695Z,77.10
2023-03-22T00:10:10.849Z,77.08
2023-03-22T00:12:45.905Z,77.13
2023-03-22T00:15:15.501Z,77.31
2023-03-22T00:17:45.009Z,77.51
2023-03-22T00:20:20.587Z,77.72
2023-03-22T00:22:50.408Z,77.70
2023-03-22T00:25:23.972Z,77.56
2023-03-22T00:27:54.939Z,77.67
2023-03-22T00:30:26.134Z,77.93
2023-03-22T00:32:58.105Z,78.09
2023-03-22T00:35:33.558Z,78.26
2023-03-22T00:38:06.229Z,78.26
2023-03-22T00:40:37.234Z,78.11
2023-03-22T00:43:05.773Z,78.11
2023-03-22T00:45:36.452Z,78.16
2023-03-22T00:48:12.054Z,78.26
2023-03-22T00:50:43.248Z,78.34
2023-03-22T00:53:11.634Z,78.25
2023-03-22T00:55:41.434Z,78.15
2023-03-22T00:58:12.572Z,78.14
2023-03-22T01:00:41.593Z,78.21
2023-03-22T01:03:16.689Z,78.33
2023-03-22T01:05:49.516Z,78.24
2023-03-22T01:08:17.676Z,78.20
2023-03-22T01:10:51.372Z,78.11
2023-03-22T01:13:20.468Z,78.15
2023-03-22T01:15:52.722Z,78.16
2023-03-22T01:18:25.757Z,78.20
2023-03-22T01:20:54.825Z,78.26
2023-03-22T01:23:27.020Z,78.25
2023-03-22T01:25:59.932Z,78.09
2023-03-22T01:28:31.131Z,78.25
2023-03-22T01:31:03.027Z,78.22
2023-03-22T01:33:36.790Z,78.46
2023-03-22T01:36:07.566Z,78.59
2023-03-22T01:38:42.123Z,78.56
2023-03-22T01:41:10.361Z,78.45
2023-03-22T01:44:11.399Z,78.60
2023-03-22T01:46:48.715Z,78.63
2023-03-22T01:49:22.453Z,78.78
2023-03-22T01:51:59.141Z,78.97
2023-03-22T01:54:49.966Z,78.95
2023-03-22T01:57:28.629Z,78.95
2023-03-22T01:59:58.553Z,78.95
2023-03-22T02:02:43.650Z,79.01
2023-03-22T02:05:22.493Z,79.02
2023-03-22T02:07:52.457Z,78.97
2023-03-22T02:10:27.598Z,78.95
2023-03-22T02:14:39.067Z,78.99
2023-03-22T02:18:06.626Z,78.99
2023-03-22T02:20:45.481Z,79.09
2023-03-22T02:23:35.403Z,78.91
2023-03-22T02:26:41.716Z,78.82
2023-03-22T02:29:33.168Z,78.98
2023-03-22T02:32:27.073Z,79.05
2023-03-22T02:35:23.073Z,79.12
2023-03-22T02:38:34.765Z,79.02
2023-03-22T02:41:11.908Z,78.91
2023-03-22T02:44:01.362Z,79.19
2023-03-22T02:46:36.396Z,79.20
2023-03-22T02:49:08.125Z,79.29
2023-03-22T02:51:42.704Z,79.20
2023-03-22T02:54:26.522Z,79.02
2023-03-22T02:57:15.880Z,79.02
2023-03-22T02:59:46.484Z,79.15
2023-03-22T03:02:18.480Z,79.29
2023-03-22T03:04:48.913Z,79.38
2023-03-22T03:07:22.273Z,79.25
2023-03-22T03:09:55.216Z,79.24
2023-03-22T03:12:24.896Z,79.24
2023-03-22T03:14:54.813Z,79.22
2023-03-22T03:17:44.188Z,79.17
2023-03-22T03:20:37.124Z,79.01
2023-03-22T03:23:17.112Z,78.95
2023-03-22T03:26:01.727Z,79.06
2023-03-22T03:28:43.485Z,79.06
2023-03-22T03:31:25.931Z,79.08
2023-03-22T03:34:12.705Z,79.22
2023-03-22T03:36:43.407Z,79.13
2023-03-22T03:39:13.415Z,79.14
2023-03-22T03:41:42.894Z,79.13
2023-03-22T03:44:13.852Z,79.17
2023-03-22T03:46:42.578Z,79.42
2023-03-22T03:49:13.734Z,79.34
2023-03-22T03:51:52.737Z,79.19
2023-03-22T03:54:21.388Z,79.29
2023-03-22T03:56:53.870Z,79.36
2023-03-22T03:59:22.346Z,79.52
2023-03-22T04:01:52.928Z,79.63
2023-03-22T04:04:37.216Z,79.51
2023-03-22T04:07:12.062Z,79.61
2023-03-22T04:09:40.949Z,79.56
2023-03-22T04:12:17.387Z,79.69
2023-03-22T04:14:56.542Z,79.72
2023-03-22T04:17:29.321Z,79.64
2023-03-22T04:19:59.622Z,79.48
2023-03-22T04:22:28.300Z,79.39
2023-03-22T04:25:02.689Z,79.46
2023-03-22T04:27:37.985Z,79.46
2023-03-22T04:30:37.411Z,79.41
2023-03-22T04:42:48.705Z,79.49
2023-03-22T04:45:32.512Z,79.66
2023-03-22T04:48:28.436Z,79.38
2023-03-22T04:51:04.118Z,79.34
2023-03-22T04:53:39.536Z,79.30
2023-03-22T04:56:10.693Z,79.29
2023-03-22T04:58:42.761Z,79.29
2023-03-22T05:01:18.217Z,79.21
2023-03-22T05:03:50.829Z,79.15
2023-03-22T05:06:22.841Z,79.17
2023-03-22T05:09:01.089Z,79.39
2023-03-22T05:11:34.016Z,79.59
2023-03-22T05:14:26.647Z,79.58
2023-03-22T05:16:56.842Z,79.45
2023-03-22T05:19:25.679Z,79.41
2023-03-22T05:21:58.719Z,79.42
2023-03-22T05:24:39.819Z,79.47
2023-03-22T05:27:11.108Z,79.61
2023-03-22T05:29:49.125Z,79.58
2023-03-22T05:32:26.098Z,79.41
2023-03-22T05:34:57.621Z,79.53
2023-03-22T05:37:38.340Z,79.63
2023-03-22T05:40:10.871Z,79.79
2023-03-22T05:42:46.138Z,79.69
2023-03-22T05:45:27.390Z,79.45
2023-03-22T05:48:11.827Z,79.49
2023-03-22T05:50:45.238Z,79.51
2023-03-22T05:53:13.856Z,79.56
2023-03-22T05:56:10.196Z,79.54
2023-03-22T05:58:42.716Z,79.33
2023-03-22T06:01:20.623Z,79.38
2023-03-22T06:03:52.642Z,79.47
2023-03-22T06:06:31.173Z,79.66
2023-03-22T06:09:17.673Z,80.02
2023-03-22T06:11:51.457Z,80.33
2023-03-22T06:14:19.918Z,80.36
2023-03-22T06:17:09.047Z,80.72
2023-03-22T06:19:41.620Z,81.06
2023-03-22T06:22:11.232Z,81.28
2023-03-22T06:24:40.917Z,81.24
2023-03-22T06:27:09.997Z,81.32
2023-03-22T06:29:41.853Z,81.25
2023-03-22T06:32:10.719Z,81.24
2023-03-22T06:34:39.271Z,80.85
2023-03-22T06:37:07.940Z,80.48
2023-03-22T06:39:40.514Z,80.34
2023-03-22T06:42:10.904Z,80.03
2023-03-22T06:44:42.488Z,80.09
2023-03-22T06:47:27.569Z,80.04
2023-03-22T06:50:19.317Z,79.66
2023-03-22T06:53:09.908Z,79.73
2023-03-22T06:55:38.381Z,79.76
2023-03-22T06:58:13.747Z,79.54
2023-03-22T07:00:42.416Z,79.14
2023-03-22T07:03:10.859Z,79.16
2023-03-22T07:05:52.339Z,79.19
2023-03-22T07:08:22.644Z,78.86
2023-03-22T07:10:53.533Z,78.45
2023-03-22T07:13:25.405Z,78.61
2023-03-22T07:15:59.225Z,78.61
2023-03-22T07:18:37.860Z,78.51
2023-03-22T07:21:06.593Z,78.36
2023-03-22T07:23:35.995Z,78.48
2023-03-22T07:26:08.332Z,78.49
2023-03-22T07:28:44.669Z,78.37
2023-03-22T07:31:14.002Z,78.56
2023-03-22T07:33:56.417Z,78.69
2023-03-22T07:36:27.608Z,78.81
2023-03-22T07:38:58.457Z,78.75
2023-03-22T07:41:39.775Z,78.79
2023-03-22T07:44:47.321Z,78.61
2023-03-22T07:47:37.853Z,78.48
2023-03-22T07:50:22.981Z,78.49
2023-03-22T07:52:59.165Z,78.68
2023-03-22T07:55:28.457Z,78.94
2023-03-22T07:57:56.645Z,79.06
2023-03-22T08:00:27.208Z,79.07
2023-03-22T08:03:02.772Z,78.43
2023-03-22T08:05:51.886Z,78.31
2023-03-22T08:08:20.920Z,77.68
2023-03-22T08:10:51.742Z,77.22
2023-03-22T08:13:20.877Z,77.37
2023-03-22T08:15:49.110Z,77.17
2023-03-22T08:18:22.215Z,76.72
2023-03-22T08:20:58.271Z,76.20
2023-03-22T08:23:41.004Z,76.01
2023-03-22T08:26:31.071Z,75.88
2023-03-22T08:29:06.046Z,75.55
2023-03-22T08:31:35.543Z,75.29
2023-03-22T08:34:03.665Z,73.82
2023-03-22T08:36:32.543Z,73.36
2023-03-22T08:39:04.503Z,73.38
2023-03-22T08:41:50.754Z,73.76
2023-03-22T08:44:19.126Z,73.57
2023-03-22T08:46:47.431Z,73.25
2023-03-22T08:49:17.017Z,72.80
2023-03-22T08:51:53.461Z,72.00
2023-03-22T08:54:36.769Z,71.89
2023-03-22T08:57:08.434Z,70.34
2023-03-22T08:59:54.594Z,69.70
2023-03-22T09:02:27.499Z,69.46
2023-03-22T09:04:56.391Z,69.36
2023-03-22T09:07:27.650Z,69.53
2023-03-22T09:10:14.117Z,69.60
2023-03-22T09:12:47.325Z,70.24
2023-03-22T09:15:20.423Z,70.09
2023-03-22T09:17:58.544Z,70.13
2023-03-22T09:20:27.515Z,69.99
2023-03-22T09:22:57.334Z,69.26
2023-03-22T09:25:25.674Z,68.88
2023-03-22T09:27:56.213Z,67.78
2023-03-22T10:01:05.322Z,60.33
2023-03-22T10:04:11.455Z,60.91
2023-03-22T10:06:38.382Z,61.10
2023-03-22T10:09:32.645Z,60.12
2023-03-22T10:12:06.528Z,59.67
2023-03-22T10:14:38.141Z,60.13
2023-03-22T10:17:08.954Z,59.41
2023-03-22T10:19:46.876Z,59.29
2023-03-22T10:22:15.864Z,58.95
2023-03-22T10:24:45.099Z,58.55
2023-03-22T10:27:16.847Z,58.22
2023-03-22T10:30:13.182Z,57.82
2023-03-22T10:32:57.514Z,57.78
2023-03-22T10:35:25.405Z,57.77
2023-03-22T10:37:52.656Z,57.49
2023-03-22T10:40:35.059Z,57.03
2023-03-22T10:43:20.272Z,57.75
2023-03-22T10:45:46.921Z,57.57
2023-03-22T10:48:28.814Z,57.14
2023-03-22T10:50:55.914Z,56.50
2023-03-22T10:53:34.138Z,56.26
2023-03-22T10:56:01.602Z,56.37
2023-03-22T10:58:30.042Z,56.41
2023-03-22T11:01:01.818Z,56.55
2023-03-22T11:03:40.249Z,56.77
2023-03-22T11:06:13.528Z,56.62
2023-03-22T11:08:44.970Z,56.48
2023-03-22T11:11:38.301Z,56.86
2023-03-22T11:14:31.195Z,56.68
2023-03-22T11:17:19.337Z,56.02
2023-03-22T11:19:54.961Z,56.45
2023-03-22T11:22:24.296Z,57.19
2023-03-22T11:24:54.965Z,56.58
2023-03-22T11:27:35.892Z,56.21
2023-03-22T11:30:20.417Z,55.72
2023-03-22T11:32:47.910Z,55.13
2023-03-22T11:35:24.991Z,55.51
2023-03-22T11:37:53.304Z,54.50
2023-03-22T11:40:30.939Z,53.88
2023-03-22T11:43:19.297Z,54.23
2023-03-22T11:45:59.296Z,53.79
2023-03-22T11:48:29.482Z,53.95
2023-03-22T11:51:10.710Z,52.97
2023-03-22T11:53:39.494Z,51.07
2023-03-22T11:56:08.612Z,50.37
2023-03-22T11:59:03.493Z,49.99
2023-03-22T12:01:35.201Z,51.04
2023-03-22T12:04:04.540Z,49.90
2023-03-22T12:06:34.301Z,49.76
2023-03-22T12:09:25.246Z,50.49
2023-03-22T12:11:55.348Z,49.94
2023-03-22T12:14:32.408Z,49.68
2023-03-22T12:17:19.004Z,48.55
2023-03-22T12:20:18.301Z,49.40
2023-03-22T12:22:52.224Z,49.14
2023-03-22T12:25:21.985Z,49.23
2023-03-22T12:28:13.024Z,49.58
2023-03-22T12:30:47.057Z,49.97
2023-03-22T12:33:18.131Z,49.53
2023-03-22T12:35:45.962Z,48.76
2023-03-22T12:38:34.053Z,49.33
2023-03-22T12:41:04.553Z,49.35
2023-03-22T12:44:01.189Z,47.86
2023-03-22T12:46:40.273Z,48.70
2023-03-22T12:49:28.834Z,47.62
2023-03-22T12:52:20.985Z,46.85
2023-03-22T12:54:51.313Z,47.70
2023-03-22T12:57:18.711Z,47.64
2023-03-22T12:59:49.202Z,47.94
2023-03-22T13:02:34.215Z,48.67
2023-03-22T13:05:12.468Z,49.08
2023-03-22T13:07:48.469Z,49.27
2023-03-22T13:10:31.297Z,49.64
2023-03-22T13:13:12.316Z,49.31
2023-03-22T13:15:55.721Z,48.67
2023-03-22T13:18:31.767Z,48.94
2023-03-22T13:21:19.286Z,48.45
2023-03-22T13:23:53.436Z,48.30
2023-03-22T13:26:22.730Z,48.86
2023-03-22T13:29:02.726Z,48.92
2023-03-22T13:31:36.171Z,48.74
2023-03-22T13:34:04.232Z,48.67
2023-03-22T13:42:36.595Z,48.57
2023-03-22T13:45:09.443Z,48.77
2023-03-22T13:47:44.937Z,48.90
2023-03-22T13:50:28.784Z,48.57
2023-03-22T13:53:06.882Z,47.92
2023-03-22T13:55:51.938Z,47.68
2023-03-22T13:58:49.795Z,47.79
2023-03-22T14:01:35.597Z,48.11
2023-03-22T14:04:10.839Z,48.05
2023-03-22T14:07:15.028Z,48.12
2023-03-22T14:09:49.303Z,48.85
2023-03-22T14:12:36.700Z,48.85
2023-03-22T14:15:05.624Z,48.48
2023-03-22T14:17:50.703Z,48.26
2023-03-22T14:20:28.260Z,48.12
